Time;durP1;ratioP1;P1;durP2;ratioP2;P2;SDS_P1;SDS_P2;PMS_P1;PMS_P2;Temp;Humidity;BMP_temperature;BMP_pressure;BME280_temperature;BME280_humidity;BME280_pressure;Samples;Min_cycle;Max_cycle;Signal;HPM_P1;HPM_P2
2022/04/15 00:01:40;;;;;;;13.40;7.78;;;6.10;99.90;;;;;;5026510;28;20052;-74
2022/04/15 00:04:06;;;;;;;15.60;8.82;;;6.10;99.90;;;;;;5028846;28;20040;-74
2022/04/15 00:06:33;;;;;;;18.08;10.02;;;6.00;99.90;;;;;;5026141;28;20077;-74
2022/04/15 00:08:59;;;;;;;14.73;8.18;;;6.00;99.90;;;;;;5026805;28;20092;-74
2022/04/15 00:11:25;;;;;;;15.38;9.25;;;6.00;99.90;;;;;;5026453;28;20462;-74
2022/04/15 00:13:51;;;;;;;16.85;8.70;;;6.00;99.90;;;;;;5028418;28;20048;-74
2022/04/15 00:16:17;;;;;;;16.80;8.90;;;5.90;99.90;;;;;;5024873;28;20033;-74
2022/04/15 00:18:43;;;;;;;14.02;8.55;;;5.90;99.90;;;;;;5023040;28;20107;-75
2022/04/15 00:21:09;;;;;;;12.98;8.27;;;5.90;99.90;;;;;;5024563;28;20414;-75
2022/04/15 00:23:35;;;;;;;16.58;8.73;;;5.90;99.90;;;;;;5023363;28;20431;-75
2022/04/15 00:26:01;;;;;;;17.17;8.95;;;5.90;99.90;;;;;;5027046;28;20041;-76
2022/04/15 00:28:27;;;;;;;13.07;8.57;;;5.80;99.90;;;;;;5024179;28;20517;-74
2022/04/15 00:30:54;;;;;;;19.08;7.93;;;5.80;99.90;;;;;;5028578;28;20123;-74
2022/04/15 00:33:21;;;;;;;13.75;7.63;;;5.80;99.90;;;;;;5024691;28;20295;-74
2022/04/15 00:35:47;;;;;;;20.60;8.52;;;5.80;99.90;;;;;;5024213;28;20063;-74
2022/04/15 00:38:13;;;;;;;14.02;8.02;;;5.70;99.90;;;;;;5029435;28;20507;-74
2022/04/15 00:40:39;;;;;;;13.23;8.02;;;5.70;99.90;;;;;;5030271;28;20033;-74
2022/04/15 00:43:04;;;;;;;15.38;7.68;;;5.70;99.90;;;;;;5027821;28;20041;-74
2022/04/15 00:45:30;;;;;;;14.93;8.10;;;5.60;99.90;;;;;;5028802;28;20087;-74
2022/04/15 00:47:57;;;;;;;13.98;8.38;;;5.50;99.90;;;;;;5031381;28;20559;-74
2022/04/15 00:50:28;;;;;;;12.20;8.45;;;5.50;99.90;;;;;;5027697;28;20045;-74
2022/04/15 00:52:55;;;;;;;16.58;9.25;;;5.50;99.90;;;;;;5043209;28;20099;-74
2022/04/15 00:55:23;;;;;;;14.57;8.60;;;5.50;99.90;;;;;;5030183;28;21559;-73
2022/04/15 00:57:52;;;;;;;12.73;7.43;;;5.50;99.90;;;;;;5029796;28;20041;-73
2022/04/15 01:00:20;;;;;;;11.85;8.40;;;5.60;99.90;;;;;;5030301;28;20041;-74
2022/04/15 01:02:46;;;;;;;12.55;7.57;;;5.50;99.90;;;;;;5061561;28;20107;-74
2022/04/15 01:05:13;;;;;;;11.10;8.10;;;5.50;99.90;;;;;;5026337;28;20034;-74
2022/04/15 01:07:42;;;;;;;14.35;8.35;;;5.50;99.90;;;;;;5021436;28;20041;-74
2022/04/15 01:10:10;;;;;;;18.52;9.07;;;5.50;99.90;;;;;;5022722;28;20037;-74
2022/04/15 01:12:38;;;;;;;16.83;8.45;;;5.50;99.90;;;;;;5028045;28;20080;-74
2022/04/15 01:15:07;;;;;;;12.05;8.30;;;5.60;99.90;;;;;;5022263;28;20052;-74
2022/04/15 01:17:36;;;;;;;14.95;8.73;;;5.60;99.90;;;;;;5024189;28;20461;-74
2022/04/15 01:20:10;;;;;;;18.38;9.13;;;5.70;99.90;;;;;;5025752;28;20037;-75
2022/04/15 01:22:39;;;;;;;14.00;8.48;;;5.70;99.90;;;;;;5026828;28;20553;-75
2022/04/15 01:25:07;;;;;;;15.20;8.75;;;5.70;99.90;;;;;;5027588;28;20053;-75
2022/04/15 01:27:35;;;;;;;16.20;8.52;;;5.80;99.90;;;;;;5028876;28;20081;-74
2022/04/15 01:30:01;;;;;;;13.32;8.75;;;5.90;99.90;;;;;;5028790;28;20494;-75
2022/04/15 01:32:26;;;;;;;13.82;8.57;;;5.90;99.90;;;;;;5029077;28;20102;-75
2022/04/15 01:34:52;;;;;;;19.30;9.57;;;5.90;99.90;;;;;;5027720;28;20033;-75
2022/04/15 01:37:20;;;;;;;18.52;8.98;;;6.00;99.90;;;;;;5030406;28;20032;-75
2022/04/15 01:39:47;;;;;;;13.73;8.85;;;6.00;99.90;;;;;;5029338;28;20406;-75
2022/04/15 01:42:14;;;;;;;14.15;8.43;;;6.10;99.90;;;;;;5028074;28;20044;-75
2022/04/15 01:44:43;;;;;;;15.48;9.07;;;6.10;99.90;;;;;;5027325;28;20041;-74
2022/04/15 01:47:12;;;;;;;13.32;8.55;;;6.10;99.90;;;;;;5030191;28;20049;-75
2022/04/15 01:49:38;;;;;;;13.18;8.38;;;6.10;99.90;;;;;;5027850;28;20057;-75
2022/04/15 01:52:05;;;;;;;14.05;9.55;;;6.20;99.90;;;;;;5028047;28;20041;-75
2022/04/15 01:54:31;;;;;;;18.45;9.25;;;6.20;99.90;;;;;;5027756;28;20037;-75
2022/04/15 01:56:57;;;;;;;13.57;9.18;;;6.20;99.90;;;;;;5026242;28;20087;-75
2022/04/15 01:59:24;;;;;;;17.98;9.45;;;6.20;99.90;;;;;;5029550;28;20507;-74
2022/04/15 02:01:55;;;;;;;15.65;8.98;;;6.30;99.90;;;;;;5027979;28;20563;-74
2022/04/15 02:04:22;;;;;;;21.40;10.18;;;6.30;99.90;;;;;;5029423;28;20110;-74
2022/04/15 02:06:48;;;;;;;17.05;10.23;;;6.30;99.90;;;;;;5029082;28;20042;-74
2022/04/15 02:09:14;;;;;;;19.00;9.70;;;6.30;99.90;;;;;;5029979;28;20056;-74
2022/04/15 02:11:40;;;;;;;19.70;9.90;;;6.40;99.90;;;;;;5026679;28;20041;-74
2022/04/15 02:14:06;;;;;;;15.65;10.23;;;6.30;99.90;;;;;;5026976;28;20510;-74
2022/04/15 02:16:33;;;;;;;17.13;10.05;;;6.30;99.90;;;;;;5000903;28;20411;-74
2022/04/15 02:18:58;;;;;;;17.20;10.20;;;6.40;99.90;;;;;;5043124;28;20072;-74
2022/04/15 02:21:24;;;;;;;16.42;9.60;;;6.40;99.90;;;;;;5028247;28;20621;-74
2022/04/15 02:23:50;;;;;;;16.48;9.65;;;6.40;99.90;;;;;;5061944;28;20037;-74
2022/04/15 02:26:15;;;;;;;17.10;10.20;;;6.40;99.90;;;;;;5026497;28;20089;-73
2022/04/15 02:28:41;;;;;;;16.55;10.23;;;6.40;99.90;;;;;;5030337;28;20106;-73
2022/04/15 02:31:07;;;;;;;16.08;9.98;;;6.40;99.90;;;;;;5024205;28;20480;-74
2022/04/15 02:33:33;;;;;;;18.52;10.52;;;6.40;99.90;;;;;;5029679;28;20508;-74
2022/04/15 02:35:58;;;;;;;16.77;9.35;;;6.40;99.90;;;;;;5028396;28;20030;-74
2022/04/15 02:38:24;;;;;;;18.98;9.98;;;6.40;99.90;;;;;;5030338;28;20041;-74
2022/04/15 02:40:50;;;;;;;19.10;9.80;;;6.50;99.90;;;;;;5026089;28;20049;-74
2022/04/15 02:43:16;;;;;;;17.88;9.63;;;6.40;99.90;;;;;;5029511;28;20071;-74
2022/04/15 02:45:42;;;;;;;13.75;9.77;;;6.40;99.90;;;;;;5026920;28;20034;-74
2022/04/15 02:48:08;;;;;;;14.60;9.93;;;6.50;99.90;;;;;;5030283;28;20257;-74
2022/04/15 02:50:34;;;;;;;21.15;10.50;;;6.50;99.90;;;;;;5039878;28;20041;-74
2022/04/15 02:53:01;;;;;;;15.63;9.50;;;6.50;99.90;;;;;;5026550;28;20041;-74
2022/04/15 02:55:27;;;;;;;20.92;10.10;;;6.50;99.90;;;;;;5026485;28;20034;-74
2022/04/15 02:57:53;;;;;;;17.02;9.43;;;6.50;99.90;;;;;;5025571;28;20037;-74
2022/04/15 03:00:19;;;;;;;14.63;9.15;;;6.50;99.90;;;;;;5025942;28;20411;-73
2022/04/15 03:02:44;;;;;;;18.98;10.30;;;6.50;99.90;;;;;;5027087;28;20072;-74
2022/04/15 03:05:10;;;;;;;13.80;9.35;;;6.60;99.90;;;;;;5030179;28;20065;-74
2022/04/15 03:07:37;;;;;;;15.10;8.93;;;6.50;99.90;;;;;;5027076;28;20049;-74
2022/04/15 03:10:05;;;;;;;19.00;9.57;;;6.60;99.90;;;;;;5009202;28;20398;-74
2022/04/15 03:12:35;;;;;;;16.45;8.45;;;6.60;99.90;;;;;;5024119;28;20048;-74
2022/04/15 03:15:03;;;;;;;16.85;9.95;;;6.70;99.90;;;;;;5027259;28;20037;-74
2022/04/15 03:17:29;;;;;;;15.60;9.90;;;6.70;99.90;;;;;;5025708;28;20045;-74
2022/04/15 03:19:54;;;;;;;14.82;9.18;;;6.70;99.90;;;;;;5028528;28;20041;-74
2022/04/15 03:22:30;;;;;;;18.45;9.90;;;6.70;99.90;;;;;;5112422;27;20782;-75
2022/04/15 03:24:56;;;;;;;15.20;9.45;;;6.70;99.90;;;;;;5082664;28;20134;-74
2022/04/15 03:27:21;;;;;;;13.82;8.95;;;6.70;99.90;;;;;;5099495;28;20043;-74
2022/04/15 03:29:47;;;;;;;17.15;8.93;;;6.80;99.90;;;;;;5101067;28;20131;-74
2022/04/15 03:32:13;;;;;;;12.95;8.90;;;6.80;99.90;;;;;;5099878;28;20371;-74
2022/04/15 03:34:38;;;;;;;15.80;8.70;;;6.80;99.90;;;;;;5102389;28;20032;-74
2022/04/15 03:37:05;;;;;;;13.48;8.48;;;6.80;99.90;;;;;;5098064;28;20036;-74
2022/04/15 03:39:31;;;;;;;14.15;8.55;;;6.80;99.90;;;;;;5093207;28;20100;-73
2022/04/15 03:41:58;;;;;;;12.85;9.30;;;6.90;99.90;;;;;;5087972;28;20074;-74
2022/04/15 03:44:23;;;;;;;13.93;9.20;;;6.90;99.90;;;;;;5100515;28;20100;-73
2022/04/15 03:46:49;;;;;;;15.63;9.23;;;6.90;99.90;;;;;;5092983;28;20035;-74
2022/04/15 03:49:15;;;;;;;15.75;9.18;;;6.90;99.90;;;;;;5084504;28;20040;-74
2022/04/15 03:51:40;;;;;;;15.05;8.60;;;7.00;99.90;;;;;;5081455;28;20117;-74
2022/04/15 03:54:06;;;;;;;13.23;9.10;;;6.90;99.90;;;;;;5081075;28;20244;-74
2022/04/15 03:56:33;;;;;;;17.13;8.85;;;7.00;99.90;;;;;;5099568;28;20036;-74
2022/04/15 03:58:59;;;;;;;15.93;9.57;;;7.00;99.90;;;;;;5097574;28;20048;-74
2022/04/15 04:01:24;;;;;;;13.75;9.00;;;6.90;99.90;;;;;;5100406;28;20101;-74
2022/04/15 04:03:52;;;;;;;15.07;9.23;;;7.00;99.90;;;;;;5101750;28;20370;-74
2022/04/15 04:06:17;;;;;;;15.32;9.20;;;7.00;99.90;;;;;;5099971;28;20043;-74
2022/04/15 04:08:49;;;;;;;12.95;8.60;;;7.00;99.90;;;;;;5099708;28;20088;-74
2022/04/15 04:11:22;;;;;;;17.92;9.15;;;7.00;99.90;;;;;;5083910;28;20439;-74
2022/04/15 04:13:48;;;;;;;18.35;9.38;;;7.00;99.90;;;;;;5098629;28;20286;-74
2022/04/15 04:16:13;;;;;;;12.95;9.10;;;7.00;99.90;;;;;;5100433;28;20126;-74
2022/04/15 04:18:40;;;;;;;17.25;8.45;;;7.00;99.90;;;;;;5082532;28;20044;-74
2022/04/15 04:21:07;;;;;;;14.10;8.95;;;7.00;99.90;;;;;;5097838;28;20226;-74
2022/04/15 04:23:33;;;;;;;13.60;8.25;;;7.10;99.90;;;;;;5088389;28;20048;-74
2022/04/15 04:25:59;;;;;;;15.18;9.00;;;7.00;99.90;;;;;;5098895;28;20036;-74
2022/04/15 04:28:25;;;;;;;12.70;8.82;;;7.10;99.90;;;;;;5100422;28;20046;-74
2022/04/15 04:30:52;;;;;;;14.05;8.00;;;7.10;99.90;;;;;;5083273;28;20496;-74
2022/04/15 04:33:18;;;;;;;14.38;8.57;;;7.10;99.90;;;;;;5070072;28;20042;-74
2022/04/15 04:35:44;;;;;;;15.73;8.23;;;7.10;99.90;;;;;;5085270;28;20101;-74
2022/04/15 04:38:10;;;;;;;12.40;8.63;;;7.10;99.90;;;;;;5085142;28;20047;-74
2022/04/15 04:40:36;;;;;;;15.15;9.20;;;7.10;99.90;;;;;;5082660;28;20040;-74
2022/04/15 04:43:04;;;;;;;14.23;9.07;;;7.10;99.90;;;;;;5065951;28;20028;-74
2022/04/15 04:45:31;;;;;;;15.32;8.52;;;7.20;99.90;;;;;;5062956;28;20131;-74
2022/04/15 04:47:59;;;;;;;17.95;9.93;;;7.20;99.90;;;;;;5064192;28;20043;-74
2022/04/15 04:50:25;;;;;;;16.90;9.52;;;7.20;99.90;;;;;;5082133;28;20516;-74
2022/04/15 04:52:50;;;;;;;16.38;9.52;;;7.20;99.90;;;;;;5080484;28;20031;-74
2022/04/15 04:55:17;;;;;;;13.15;9.38;;;7.20;99.90;;;;;;5100284;28;20043;-74
2022/04/15 04:57:45;;;;;;;16.55;9.98;;;7.20;99.90;;;;;;5070686;28;20501;-74
2022/04/15 05:00:14;;;;;;;14.38;9.98;;;7.30;99.90;;;;;;5084937;28;20032;-74
2022/04/15 05:02:40;;;;;;;19.50;9.48;;;7.30;99.90;;;;;;5084334;28;20043;-74
2022/04/15 05:05:07;;;;;;;19.70;9.70;;;7.30;99.90;;;;;;5086998;28;20036;-74
2022/04/15 05:07:33;;;;;;;15.70;10.63;;;7.30;99.90;;;;;;5083000;28;20042;-74
2022/04/15 05:09:59;;;;;;;17.65;10.68;;;7.30;99.90;;;;;;5098745;28;20067;-74
2022/04/15 05:12:24;;;;;;;15.57;10.30;;;7.40;99.90;;;;;;5104280;28;20070;-74
2022/04/15 05:14:51;;;;;;;17.23;10.57;;;7.40;99.90;;;;;;5068687;28;20564;-74
2022/04/15 05:17:17;;;;;;;15.75;10.25;;;7.40;99.90;;;;;;5086417;28;20046;-74
2022/04/15 05:19:44;;;;;;;17.65;10.65;;;7.40;99.90;;;;;;5083145;28;20496;-74
2022/04/15 05:22:13;;;;;;;14.18;9.73;;;7.40;99.90;;;;;;5099352;28;20097;-74
2022/04/15 05:24:42;;;;;;;17.02;9.25;;;7.40;99.90;;;;;;5068673;28;20416;-75
2022/04/15 05:27:08;;;;;;;13.60;9.30;;;7.40;99.90;;;;;;5088135;28;20032;-74
2022/04/15 05:29:34;;;;;;;12.15;8.70;;;7.40;99.90;;;;;;5085865;28;20511;-74
2022/04/15 05:32:00;;;;;;;12.18;9.38;;;7.40;99.90;;;;;;5083809;28;20447;-74
2022/04/15 05:34:26;;;;;;;10.63;7.90;;;7.40;99.90;;;;;;5083401;28;20036;-74
2022/04/15 05:36:55;;;;;;;11.73;7.90;;;7.40;99.90;;;;;;5069904;28;20039;-74
2022/04/15 05:39:21;;;;;;;11.68;8.18;;;7.30;99.90;;;;;;5069376;28;20089;-74
2022/04/15 05:41:47;;;;;;;13.75;8.07;;;7.30;99.90;;;;;;5083339;28;20043;-74
2022/04/15 05:44:14;;;;;;;9.60;7.40;;;7.40;99.90;;;;;;5098378;28;20032;-74
2022/04/15 05:46:43;;;;;;;9.10;7.43;;;7.30;99.90;;;;;;5053237;28;20274;-74
2022/04/15 05:49:17;;;;;;;11.60;7.70;;;7.30;99.90;;;;;;5084122;28;20040;-74
2022/04/15 05:51:45;;;;;;;8.93;7.07;;;7.30;99.90;;;;;;5083383;28;20428;-74
2022/04/15 05:54:12;;;;;;;9.60;7.00;;;7.30;99.90;;;;;;5080343;28;20047;-74
2022/04/15 05:56:38;;;;;;;11.07;6.75;;;7.30;99.90;;;;;;5063033;28;20532;-74
2022/04/15 05:59:04;;;;;;;7.53;6.32;;;7.30;99.90;;;;;;5077822;28;20501;-74
2022/04/15 06:01:30;;;;;;;7.80;6.30;;;7.30;99.90;;;;;;5082232;27;20118;-74
2022/04/15 06:03:56;;;;;;;11.25;6.30;;;7.20;99.90;;;;;;5066261;28;20633;-74
2022/04/15 06:06:22;;;;;;;9.30;7.30;;;7.30;99.90;;;;;;5082258;28;20039;-74
2022/04/15 06:08:48;;;;;;;9.50;7.10;;;7.30;99.90;;;;;;5064775;28;20485;-74
2022/04/15 06:11:14;;;;;;;11.00;6.75;;;7.30;99.90;;;;;;5051988;28;20036;-74
2022/04/15 06:13:42;;;;;;;9.85;7.00;;;7.30;99.90;;;;;;5070025;28;20516;-74
2022/04/15 06:16:09;;;;;;;9.32;6.47;;;7.30;99.90;;;;;;5047721;28;20047;-75
2022/04/15 06:18:36;;;;;;;10.25;6.18;;;7.30;99.90;;;;;;5068388;28;20457;-74
2022/04/15 06:21:05;;;;;;;8.52;6.53;;;7.30;99.90;;;;;;5063548;28;20052;-74
2022/04/15 06:23:30;;;;;;;9.77;7.05;;;7.30;99.90;;;;;;5082029;28;20048;-74
2022/04/15 06:25:56;;;;;;;8.32;7.03;;;7.30;99.90;;;;;;5064339;28;20043;-74
2022/04/15 06:28:22;;;;;;;8.73;7.30;;;7.30;99.90;;;;;;5084202;28;20036;-74
2022/04/15 06:30:49;;;;;;;9.98;6.78;;;7.30;99.90;;;;;;5084844;28;20123;-74
2022/04/15 06:33:15;;;;;;;10.23;7.53;;;7.30;99.90;;;;;;5077894;28;20046;-73
2022/04/15 06:35:41;;;;;;;10.00;7.63;;;7.30;99.90;;;;;;5069123;28;20368;-74
2022/04/15 06:38:07;;;;;;;9.98;7.40;;;7.40;99.90;;;;;;5084743;28;20032;-74
2022/04/15 06:40:34;;;;;;;11.35;8.23;;;7.30;99.90;;;;;;5083578;28;20047;-74
2022/04/15 06:42:59;;;;;;;8.55;7.00;;;7.30;99.90;;;;;;5064774;28;20040;-75
2022/04/15 06:45:25;;;;;;;9.80;7.57;;;7.30;99.90;;;;;;5053967;28;20111;-75
2022/04/15 06:47:52;;;;;;;9.98;7.82;;;7.30;99.90;;;;;;5083134;28;20028;-75
2022/04/15 06:50:19;;;;;;;9.30;7.70;;;7.30;99.90;;;;;;5073397;28;20036;-75
2022/04/15 06:52:44;;;;;;;11.93;7.85;;;7.20;99.90;;;;;;5083264;28;20615;-75
2022/04/15 06:55:10;;;;;;;9.82;8.25;;;7.20;99.90;;;;;;5078866;28;20028;-73
2022/04/15 06:57:36;;;;;;;10.77;8.15;;;7.20;99.90;;;;;;5066874;28;20259;-73
2022/04/15 07:00:04;;;;;;;10.35;8.77;;;7.30;99.90;;;;;;5083207;28;20036;-73
2022/04/15 07:02:30;;;;;;;12.98;9.00;;;7.20;99.90;;;;;;5083447;28;20116;-73
2022/04/15 07:04:56;;;;;;;11.45;8.60;;;7.20;99.90;;;;;;5079896;28;20336;-73
2022/04/15 07:07:21;;;;;;;12.43;9.68;;;7.20;99.90;;;;;;5082440;28;20123;-73
2022/04/15 07:09:50;;;;;;;11.48;9.30;;;7.30;99.90;;;;;;5071784;28;20126;-74
2022/04/15 07:12:17;;;;;;;12.63;8.50;;;7.30;99.90;;;;;;5068980;28;20555;-74
2022/04/15 07:14:43;;;;;;;12.80;8.93;;;7.30;99.90;;;;;;5075083;28;20042;-74
2022/04/15 07:17:09;;;;;;;14.68;8.98;;;7.40;99.90;;;;;;5077405;28;20689;-74
2022/04/15 07:19:38;;;;;;;16.92;9.02;;;7.40;99.90;;;;;;5075144;28;20050;-74
2022/04/15 07:22:05;;;;;;;11.85;9.30;;;7.50;99.90;;;;;;5074318;28;20063;-74
2022/04/15 07:24:34;;;;;;;12.98;9.75;;;7.50;99.90;;;;;;5075785;28;20524;-74
2022/04/15 07:27:01;;;;;;;10.38;8.60;;;7.50;99.90;;;;;;5057513;28;20079;-74
2022/04/15 07:29:28;;;;;;;13.70;9.60;;;7.50;99.90;;;;;;5075609;28;20043;-74
2022/04/15 07:31:53;;;;;;;13.93;10.07;;;7.60;99.90;;;;;;5043698;28;20135;-74
2022/04/15 07:34:19;;;;;;;14.77;9.88;;;7.60;99.90;;;;;;5060061;28;20875;-74
2022/04/15 07:36:53;;;;;;;20.42;10.40;;;7.60;99.90;;;;;;5075420;28;20045;-74
2022/04/15 07:39:19;;;;;;;13.57;9.65;;;7.60;99.90;;;;;;5058671;28;20039;-74
2022/04/15 07:41:45;;;;;;;17.13;10.23;;;7.70;99.90;;;;;;5074305;28;20105;-74
2022/04/15 07:44:13;;;;;;;16.83;10.75;;;7.80;99.90;;;;;;5075999;28;20040;-74
2022/04/15 07:46:40;;;;;;;15.45;10.63;;;7.80;99.90;;;;;;5073330;28;20507;-74
2022/04/15 07:49:06;;;;;;;17.15;10.93;;;7.70;99.90;;;;;;5090500;28;20044;-74
2022/04/15 07:51:32;;;;;;;14.90;11.10;;;7.80;99.90;;;;;;5076312;28;20048;-74
2022/04/15 07:53:58;;;;;;;15.05;10.45;;;7.80;99.90;;;;;;5044905;28;20032;-74
2022/04/15 07:56:24;;;;;;;14.38;10.30;;;7.80;99.90;;;;;;5058062;28;20062;-74
2022/04/15 07:58:51;;;;;;;17.27;10.18;;;7.80;99.90;;;;;;5094942;28;20490;-74
2022/04/15 08:01:17;;;;;;;18.27;10.90;;;7.90;99.90;;;;;;5060696;28;20048;-74
2022/04/15 08:03:43;;;;;;;16.73;11.00;;;8.00;99.90;;;;;;5058794;28;20455;-74
2022/04/15 08:06:09;;;;;;;21.70;11.38;;;8.00;99.90;;;;;;5041760;28;20044;-74
2022/04/15 08:08:35;;;;;;;15.82;10.52;;;8.00;99.90;;;;;;5044091;28;20038;-74
2022/04/15 08:11:01;;;;;;;18.75;11.52;;;8.00;99.90;;;;;;5054611;28;20044;-74
2022/04/15 08:13:28;;;;;;;19.65;12.13;;;8.10;99.90;;;;;;5076257;28;20040;-74
2022/04/15 08:15:54;;;;;;;21.85;13.10;;;7.80;99.90;;;;;;5077601;28;20047;-74
2022/04/15 08:18:24;;;;;;;19.10;12.70;;;8.10;99.90;;;;;;5069989;28;20039;-74
2022/04/15 08:20:51;;;;;;;24.10;12.07;;;8.20;99.90;;;;;;5100109;28;20048;-74
2022/04/15 08:23:20;;;;;;;19.70;11.05;;;8.20;99.90;;;;;;5087183;28;20064;-74
2022/04/15 08:25:46;;;;;;;20.02;12.45;;;8.20;99.90;;;;;;5073358;28;20043;-74
2022/04/15 08:28:12;;;;;;;19.95;11.60;;;8.20;99.90;;;;;;5085834;28;20565;-74
2022/04/15 08:30:38;;;;;;;20.90;11.40;;;8.10;99.90;;;;;;5074014;28;20031;-74
2022/04/15 08:33:07;;;;;;;21.17;11.93;;;8.20;99.90;;;;;;5091542;28;20032;-74
2022/04/15 08:35:34;;;;;;;21.23;12.75;;;8.20;99.90;;;;;;5090661;28;20036;-74
2022/04/15 08:38:01;;;;;;;20.90;13.90;;;8.10;99.90;;;;;;5091853;28;20067;-74
2022/04/15 08:40:31;;;;;;;26.50;14.15;;;8.20;99.90;;;;;;5073002;28;20059;-74
2022/04/15 08:42:58;;;;;;;23.17;13.73;;;8.20;99.90;;;;;;5090709;28;20040;-74
2022/04/15 08:45:30;;;;;;;25.15;14.55;;;8.30;99.90;;;;;;5090748;28;20044;-74
2022/04/15 08:47:59;;;;;;;23.42;14.43;;;8.40;99.90;;;;;;5060326;28;20106;-74
2022/04/15 08:50:27;;;;;;;23.27;13.70;;;8.50;99.90;;;;;;5073253;28;20050;-74
2022/04/15 08:52:57;;;;;;;22.45;12.75;;;8.60;99.90;;;;;;5088739;28;20036;-74
2022/04/15 08:55:24;;;;;;;24.02;13.60;;;8.60;99.90;;;;;;5089277;28;20092;-74
2022/04/15 08:57:52;;;;;;;19.17;11.18;;;8.70;99.90;;;;;;5087243;28;20040;-73
2022/04/15 09:00:21;;;;;;;19.88;12.07;;;8.70;99.90;;;;;;5089572;28;20043;-73
2022/04/15 09:02:47;;;;;;;19.10;11.38;;;8.70;99.90;;;;;;5103799;28;20688;-73
2022/04/15 09:05:17;;;;;;;16.17;10.07;;;8.70;99.90;;;;;;5088601;28;20397;-73
2022/04/15 09:07:45;;;;;;;19.77;10.88;;;8.70;99.90;;;;;;5106527;28;20101;-74
2022/04/15 09:10:11;;;;;;;18.23;11.93;;;8.80;99.90;;;;;;5089008;28;20040;-74
2022/04/15 09:12:38;;;;;;;16.20;10.38;;;8.80;99.90;;;;;;5105610;28;20035;-74
2022/04/15 09:15:07;;;;;;;16.02;10.85;;;8.80;99.90;;;;;;5090127;28;20351;-74
2022/04/15 09:17:38;;;;;;;16.17;10.02;;;8.90;99.90;;;;;;5106157;28;20090;-73
2022/04/15 09:20:05;;;;;;;15.75;9.40;;;8.90;99.90;;;;;;5089678;28;20118;-74
2022/04/15 09:22:31;;;;;;;14.57;9.13;;;8.90;99.90;;;;;;5068070;28;20048;-74
2022/04/15 09:24:58;;;;;;;17.38;9.23;;;8.90;99.90;;;;;;5069438;28;20042;-74
2022/04/15 09:27:24;;;;;;;12.57;8.40;;;9.00;99.90;;;;;;5079773;28;20042;-74
2022/04/15 09:29:51;;;;;;;13.20;8.73;;;9.10;99.90;;;;;;5095484;28;20093;-74
2022/04/15 09:32:18;;;;;;;14.75;9.05;;;9.10;99.90;;;;;;5089170;28;20043;-74
2022/04/15 09:34:54;;;;;;;12.73;7.68;;;9.20;99.90;;;;;;5069246;28;20114;-74
2022/04/15 09:37:21;;;;;;;11.50;7.18;;;9.30;99.90;;;;;;5083900;28;20381;-74
2022/04/15 09:40:14;;;;;;;10.32;6.50;;;9.40;99.90;;;;;;5073061;28;20304;-74
2022/04/15 09:42:51;;;;;;;12.57;7.25;;;9.50;99.90;;;;;;5088473;28;20056;-74
2022/04/15 09:45:30;;;;;;;10.93;7.18;;;9.60;99.90;;;;;;5088553;28;20068;-74
2022/04/15 09:48:08;;;;;;;11.90;7.85;;;9.60;99.90;;;;;;5093389;28;20404;-74
2022/04/15 09:50:37;;;;;;;16.17;8.60;;;9.70;99.90;;;;;;5077616;28;20069;-74
2022/04/15 09:53:16;;;;;;;10.02;7.93;;;9.80;99.90;;;;;;5090928;28;20055;-73
2022/04/15 09:55:51;;;;;;;11.77;7.95;;;9.80;99.90;;;;;;5083157;28;20504;-74
2022/04/15 09:58:19;;;;;;;11.20;8.05;;;9.80;99.90;;;;;;5088128;28;20048;-74
2022/04/15 10:00:48;;;;;;;11.15;7.05;;;9.90;99.90;;;;;;5089584;28;20055;-74
2022/04/15 10:03:22;;;;;;;11.82;6.68;;;10.10;99.90;;;;;;5076474;28;20389;-74
2022/04/15 10:05:54;;;;;;;7.47;6.25;;;10.10;99.90;;;;;;5088245;28;20460;-74
2022/04/15 10:08:21;;;;;;;9.55;6.72;;;10.20;99.90;;;;;;5077989;28;20055;-74
2022/04/15 10:10:47;;;;;;;11.15;7.05;;;10.20;99.90;;;;;;5070256;28;20036;-74
2022/04/15 10:13:14;;;;;;;14.25;7.00;;;10.30;99.90;;;;;;5069416;28;20040;-74
2022/04/15 10:15:40;;;;;;;8.07;5.90;;;10.40;99.90;;;;;;5080673;28;20044;-73
2022/04/15 10:18:08;;;;;;;10.35;6.38;;;10.50;99.90;;;;;;5079963;28;20085;-72
2022/04/15 10:20:34;;;;;;;11.82;6.35;;;10.60;99.90;;;;;;5076658;28;20051;-72
2022/04/15 10:23:02;;;;;;;9.80;6.40;;;10.60;99.90;;;;;;5081125;28;20075;-72
2022/04/15 10:25:29;;;;;;;8.43;6.78;;;10.60;99.90;;;;;;5075884;28;20040;-72
2022/04/15 10:28:10;;;;;;;10.13;6.22;;;10.70;99.90;;;;;;5081421;28;20040;-72
2022/04/15 10:30:37;;;;;;;9.23;6.18;;;10.70;99.90;;;;;;5080334;28;20046;-71
2022/04/15 10:33:03;;;;;;;10.70;6.78;;;10.70;99.90;;;;;;5064569;28;20437;-72
2022/04/15 10:35:31;;;;;;;10.85;6.63;;;10.70;99.90;;;;;;5082323;28;20036;-72
2022/04/15 10:38:17;;;;;;;13.23;7.38;;;10.70;99.90;;;;;;5066227;28;20178;-72
2022/04/15 10:40:44;;;;;;;10.63;7.50;;;10.70;99.90;;;;;;5062235;28;20101;-72
2022/04/15 10:43:21;;;;;;;13.38;7.20;;;10.60;99.90;;;;;;5066175;28;20036;-72
2022/04/15 10:45:48;;;;;;;12.75;7.35;;;10.60;99.90;;;;;;5082991;28;20589;-72
2022/04/15 10:48:28;;;;;;;11.15;7.22;;;10.60;99.90;;;;;;5064551;28;20039;-72
2022/04/15 10:50:53;;;;;;;11.73;6.80;;;10.60;99.90;;;;;;5071740;28;20089;-72
2022/04/15 10:53:25;;;;;;;8.93;6.75;;;10.70;99.90;;;;;;5085276;28;20043;-71
2022/04/15 10:55:54;;;;;;;11.73;7.00;;;10.80;99.90;;;;;;5081733;28;20401;-72
2022/04/15 10:58:21;;;;;;;10.27;6.03;;;10.80;99.90;;;;;;5071571;28;20071;-72
2022/04/15 11:01:20;;;;;;;8.85;6.78;;;10.90;99.90;;;;;;5075998;28;20040;-72
2022/04/15 11:03:53;;;;;;;12.13;7.03;;;11.00;99.90;;;;;;5061988;28;20646;-72
2022/04/15 11:06:27;;;;;;;13.50;7.18;;;11.00;99.90;;;;;;5072290;28;20059;-72
2022/04/15 11:08:53;;;;;;;10.13;6.10;;;11.00;99.90;;;;;;5057903;28;20046;-73
2022/04/15 11:11:35;;;;;;;15.20;6.95;;;11.00;99.90;;;;;;5076529;28;20044;-72
2022/04/15 11:14:08;;;;;;;9.35;6.25;;;11.00;99.90;;;;;;5084125;28;20044;-72
2022/04/15 11:16:52;;;;;;;8.50;6.85;;;11.00;99.90;;;;;;5079846;28;20045;-73
2022/04/15 11:19:26;;;;;;;8.07;7.18;;;11.10;99.90;;;;;;5087159;28;20044;-73
2022/04/15 11:21:54;;;;;;;11.13;6.82;;;11.10;99.90;;;;;;5090138;28;20116;-73
2022/04/15 11:24:25;;;;;;;17.02;10.27;;;11.00;99.90;;;;;;5071056;28;20040;-73
2022/04/15 11:26:57;;;;;;;15.68;10.10;;;11.00;99.90;;;;;;5088772;28;20044;-73
2022/04/15 11:29:28;;;;;;;15.53;8.50;;;11.00;99.90;;;;;;5084901;28;20275;-73
2022/04/15 11:32:04;;;;;;;12.73;8.25;;;11.00;99.90;;;;;;5081411;28;20451;-73
2022/04/15 11:34:30;;;;;;;13.38;6.80;;;11.10;99.90;;;;;;5075612;28;20044;-74
2022/04/15 11:37:01;;;;;;;11.93;6.68;;;11.10;99.90;;;;;;5063046;28;20348;-74
2022/04/15 11:39:28;;;;;;;10.82;6.97;;;11.20;99.90;;;;;;5076530;28;20512;-74
2022/04/15 11:41:57;;;;;;;11.60;7.35;;;11.30;99.90;;;;;;5078816;28;20063;-74
2022/04/15 11:44:30;;;;;;;22.67;13.50;;;11.20;99.90;;;;;;5079019;28;20032;-73
2022/04/15 11:47:15;;;;;;;11.88;7.88;;;11.40;99.90;;;;;;5075327;28;20028;-73
2022/04/15 11:49:45;;;;;;;11.20;7.75;;;11.30;99.90;;;;;;5086201;28;20489;-73
2022/04/15 11:52:18;;;;;;;10.93;7.80;;;11.20;99.90;;;;;;5089172;28;20614;-73
2022/04/15 11:54:44;;;;;;;9.88;7.45;;;11.20;99.90;;;;;;5076017;28;20047;-74
2022/04/15 11:57:10;;;;;;;9.18;7.22;;;11.10;99.90;;;;;;5058969;28;20044;-73
2022/04/15 11:59:40;;;;;;;10.15;7.30;;;11.10;99.90;;;;;;5078934;28;20044;-74
2022/04/15 12:02:06;;;;;;;11.90;7.13;;;11.10;99.90;;;;;;5061670;28;20488;-74
2022/04/15 12:04:32;;;;;;;9.38;7.47;;;11.10;99.90;;;;;;5075320;28;20247;-73
2022/04/15 12:06:59;;;;;;;11.25;7.82;;;11.00;99.90;;;;;;5091113;28;20119;-73
2022/04/15 12:09:25;;;;;;;14.35;8.70;;;11.00;99.90;;;;;;5092098;28;20036;-73
2022/04/15 12:11:52;;;;;;;11.85;6.70;;;10.90;99.90;;;;;;5059847;28;20044;-73
2022/04/15 12:14:19;;;;;;;16.73;7.90;;;10.90;99.90;;;;;;5092065;28;20416;-73
2022/04/15 12:16:46;;;;;;;13.38;7.70;;;10.80;99.90;;;;;;5041477;28;20040;-73
2022/04/15 12:19:13;;;;;;;13.05;7.65;;;11.00;99.90;;;;;;5087523;28;20411;-73
2022/04/15 12:21:39;;;;;;;14.40;8.88;;;11.00;99.90;;;;;;5089249;28;20058;-74
2022/04/15 12:24:09;;;;;;;8.65;7.28;;;11.00;99.90;;;;;;5092218;28;20086;-74
2022/04/15 12:26:46;;;;;;;10.82;6.70;;;11.00;99.90;;;;;;5067669;28;20066;-74
2022/04/15 12:32:15;;;;;;;10.18;7.38;;;11.10;99.90;;;;;;5106446;28;20505;-74
2022/04/15 12:34:46;;;;;;;13.15;7.93;;;11.10;99.90;;;;;;5077219;28;20047;-73
2022/04/15 12:37:36;;;;;;;10.68;7.30;;;11.00;99.90;;;;;;5063395;28;20037;-73
2022/04/15 12:40:09;;;;;;;8.73;6.88;;;10.80;99.90;;;;;;5080008;28;20101;-73
2022/04/15 12:42:37;;;;;;;8.43;6.07;;;10.70;99.90;;;;;;5078805;28;20041;-73
2022/04/15 12:45:07;;;;;;;11.27;7.43;;;10.60;99.90;;;;;;5062440;28;20144;-73
2022/04/15 12:47:33;;;;;;;8.50;7.03;;;10.70;99.90;;;;;;5090811;28;20044;-73
2022/04/15 12:50:20;;;;;;;10.30;6.38;;;10.80;99.90;;;;;;5091016;28;20081;-73